Huron, Kansas
Current Conditions -  °F | °C
As of 2:53 PM on Thursday 23 Oct 2014 (Local Time) from KSTJ Reporting Station
Broken Clouds Broken Clouds  
Wind Chill: 72°   Ceiling: 4100
Heat Index: 72°   Visibility: 10mi
Dew Point: 60°   Wind: 8mph
Humidity: 66%   Direction: 220°SW
Pressure: 30.04"   Gusts: NA
Location:  39.6039°N, 95.3094°W
Report Text: KSTJ 231953Z 22007KT 10SM FEW021 SCT034 BKN041 22/16 A3004 RMK AO2 SLP166 T02220156
Loading
Personal Weather Stations






























Interactive Weather Map
Tropical Storm Tracking
New forecast layout! Learn more

10-Day Weather Forecast

Advertisements
Track Severe Weather on mobile